createdAt,value
2022-08-26T00:02:13.596Z,100874.19
2022-08-26T00:04:43.910Z,100872.94
2022-08-26T00:07:12.037Z,100873.47
2022-08-26T00:09:40.519Z,100870.19
2022-08-26T00:12:09.527Z,100871.75
2022-08-26T00:14:41.502Z,100879.13
2022-08-26T00:17:09.801Z,100884.59
2022-08-26T00:19:39.798Z,100874.47
2022-08-26T00:22:08.562Z,100883.94
2022-08-26T00:24:36.725Z,100882.56
2022-08-26T00:27:06.304Z,100881.56
2022-08-26T00:29:37.365Z,100884.16
2022-08-26T00:32:06.685Z,100885.88
2022-08-26T00:34:35.222Z,100885.91
2022-08-26T00:37:09.012Z,100885.19
2022-08-26T00:39:38.418Z,100895.50
2022-08-26T00:42:06.964Z,100894.16
2022-08-26T00:44:35.202Z,100896.53
2022-08-26T00:47:06.968Z,100892.56
2022-08-26T00:49:38.433Z,100894.63
2022-08-26T00:52:12.073Z,100895.66
2022-08-26T00:54:46.811Z,100889.66
2022-08-26T00:57:20.871Z,100899.97
2022-08-26T00:59:52.490Z,100894.13
2022-08-26T01:02:21.577Z,100901.00
2022-08-26T01:04:55.725Z,100908.22
2022-08-26T01:07:30.289Z,100916.09
2022-08-26T01:10:01.040Z,100913.91
2022-08-26T01:12:34.310Z,100911.31
2022-08-26T01:15:03.954Z,100904.09
2022-08-26T01:17:33.780Z,100907.72
2022-08-26T01:20:08.681Z,100906.84
2022-08-26T01:22:50.414Z,100914.78
2022-08-26T01:25:22.360Z,100922.31
2022-08-26T01:27:51.709Z,100910.97
2022-08-26T01:30:21.718Z,100911.31
2022-08-26T01:32:51.589Z,100923.03
2022-08-26T01:35:20.410Z,100916.13
2022-08-26T01:37:54.470Z,100927.81
2022-08-26T01:40:27.193Z,100932.47
2022-08-26T01:42:55.668Z,100934.69
2022-08-26T01:45:27.396Z,100930.91
2022-08-26T01:47:58.042Z,100943.47
2022-08-26T01:50:30.285Z,100942.94
2022-08-26T01:53:03.268Z,100944.13
2022-08-26T01:55:34.054Z,100946.53
2022-08-26T01:58:06.420Z,100951.88
2022-08-26T02:00:35.643Z,100962.88
2022-08-26T02:03:21.457Z,100962.34
2022-08-26T02:05:53.644Z,100964.41
2022-08-26T02:08:27.759Z,100969.75
2022-08-26T02:10:56.982Z,100976.28
2022-08-26T02:13:27.767Z,100972.47
2022-08-26T02:16:01.262Z,100977.66
2022-08-26T02:18:34.187Z,100979.88
2022-08-26T02:21:02.369Z,100979.16
2022-08-26T02:23:36.162Z,100988.91
2022-08-26T02:26:10.368Z,100996.41
2022-08-26T02:28:44.047Z,101003.47
2022-08-26T02:31:12.029Z,100999.81
2022-08-26T02:33:43.008Z,101014.97
2022-08-26T02:36:12.159Z,101022.47
2022-08-26T02:38:43.038Z,101020.78
2022-08-26T02:41:11.225Z,101023.66
2022-08-26T02:43:39.457Z,101032.06
2022-08-26T02:46:07.384Z,101035.59
2022-08-26T02:48:35.411Z,101035.41
2022-08-26T02:51:03.824Z,101038.56
2022-08-26T02:53:32.231Z,101040.16
2022-08-26T02:56:05.804Z,101043.06
2022-08-26T02:58:33.823Z,101045.13
2022-08-26T03:01:04.982Z,101041.28
2022-08-26T03:03:33.957Z,101052.72
2022-08-26T03:06:02.286Z,101048.41
2022-08-26T03:08:30.325Z,101053.22
2022-08-26T03:10:59.191Z,101055.38
2022-08-26T03:13:30.921Z,101053.09
2022-08-26T03:15:58.948Z,101047.88
2022-08-26T03:18:26.984Z,101050.88
2022-08-26T03:20:54.991Z,101055.88
2022-08-26T03:23:23.435Z,101053.34
2022-08-26T03:25:51.888Z,101061.28
2022-08-26T03:28:20.266Z,101054.53
2022-08-26T03:30:49.186Z,101060.88
2022-08-26T03:33:17.146Z,101057.94
2022-08-26T03:35:47.819Z,101076.66
2022-08-26T03:38:18.893Z,101069.09
2022-08-26T03:40:46.919Z,101070.38
2022-08-26T03:43:16.949Z,101071.50
2022-08-26T03:45:45.961Z,101073.25
2022-08-26T03:48:15.683Z,101070.94
2022-08-26T03:50:43.959Z,101076.91
2022-08-26T03:53:12.709Z,101077.91
2022-08-26T03:55:42.000Z,101075.56
2022-08-26T03:58:11.970Z,101080.34
2022-08-26T04:00:40.004Z,101077.00
2022-08-26T04:03:10.025Z,101079.91
2022-08-26T04:05:40.057Z,101075.94
2022-08-26T04:08:08.172Z,101078.00
2022-08-26T04:10:38.966Z,101080.03
2022-08-26T04:13:07.223Z,101082.94
2022-08-26T04:15:35.571Z,101081.00
2022-08-26T04:18:04.489Z,101079.25
2022-08-26T04:20:32.611Z,101076.91
2022-08-26T04:23:01.989Z,101078.78
2022-08-26T04:25:30.009Z,101076.69
2022-08-26T04:27:58.108Z,101072.06
2022-08-26T04:30:26.255Z,101066.88
2022-08-26T04:32:54.251Z,101063.81
2022-08-26T04:35:25.814Z,101059.34
2022-08-26T04:37:55.489Z,101058.66
2022-08-26T04:40:27.502Z,101063.56
2022-08-26T04:42:56.441Z,101059.72
2022-08-26T04:45:25.500Z,101062.47
2022-08-26T04:47:56.255Z,101062.75
2022-08-26T04:50:25.781Z,101064.47
2022-08-26T04:52:55.358Z,101061.72
2022-08-26T04:55:38.537Z,101058.66
2022-08-26T04:58:10.750Z,101058.66
2022-08-26T05:00:39.101Z,101064.78
2022-08-26T05:03:10.382Z,101070.88
2022-08-26T05:05:41.177Z,101073.41
2022-08-26T05:08:11.355Z,101071.38
2022-08-26T05:10:48.011Z,101065.47
2022-08-26T05:13:18.775Z,101068.41
2022-08-26T05:15:49.551Z,101064.94
2022-08-26T05:18:20.714Z,101067.44
2022-08-26T05:20:50.945Z,101070.38
2022-08-26T05:23:22.470Z,101062.91
2022-08-26T05:25:58.896Z,101066.56
2022-08-26T05:28:29.378Z,101058.06
2022-08-26T05:30:58.567Z,101059.00
2022-08-26T05:33:26.972Z,101067.63
2022-08-26T05:35:58.324Z,101068.28
2022-08-26T05:38:30.140Z,101060.59
2022-08-26T05:44:30.181Z,101066.88
2022-08-26T05:47:35.126Z,101073.88
2022-08-26T05:50:13.847Z,101071.50
2022-08-26T05:52:47.567Z,101061.41
2022-08-26T05:55:22.415Z,101076.56
2022-08-26T05:57:55.235Z,101067.38
2022-08-26T06:11:33.529Z,101068.72
2022-08-26T06:17:24.294Z,101061.16
2022-08-26T06:20:14.712Z,101067.63
2022-08-26T06:23:11.045Z,101076.75
2022-08-26T06:26:24.073Z,101086.81
2022-08-26T06:29:12.648Z,101081.97
2022-08-26T06:31:49.278Z,101092.75
2022-08-26T06:34:20.880Z,101088.84
2022-08-26T06:36:53.984Z,101087.72
2022-08-26T06:39:23.237Z,101081.53
2022-08-26T06:41:52.723Z,101084.88
2022-08-26T06:44:23.472Z,101095.00
2022-08-26T06:47:00.882Z,101082.44
2022-08-26T06:49:30.189Z,101088.84
2022-08-26T06:52:01.633Z,101093.13
2022-08-26T06:54:36.556Z,101083.69
2022-08-26T06:57:07.914Z,101093.13
2022-08-26T06:59:42.693Z,101095.97
2022-08-26T07:02:13.366Z,101095.91
2022-08-26T07:04:42.221Z,101093.03
2022-08-26T07:07:14.141Z,101095.88
2022-08-26T07:09:42.625Z,101098.34
2022-08-26T07:12:10.943Z,101096.72
2022-08-26T07:14:41.079Z,101091.34
2022-08-26T07:17:15.843Z,101094.34
2022-08-26T07:19:44.753Z,101101.56
2022-08-26T07:22:14.145Z,101103.84
2022-08-26T07:24:42.532Z,101111.84
2022-08-26T07:27:13.574Z,101106.88
2022-08-26T07:29:43.651Z,101111.50
2022-08-26T07:32:14.666Z,101119.56
2022-08-26T07:34:43.339Z,101124.41
2022-08-26T07:37:11.803Z,101119.09
2022-08-26T07:39:41.684Z,101118.28
2022-08-26T07:42:14.289Z,101113.97
2022-08-26T07:44:46.910Z,101118.06
2022-08-26T07:47:25.452Z,101119.94
2022-08-26T07:49:57.471Z,101125.47
2022-08-26T07:52:29.399Z,101123.19
2022-08-26T07:54:58.687Z,101122.91
2022-08-26T07:57:29.472Z,101132.47
2022-08-26T08:00:00.386Z,101126.66
2022-08-26T08:02:29.849Z,101138.03
2022-08-26T08:04:58.646Z,101143.56
2022-08-26T08:07:38.262Z,101145.31
2022-08-26T08:10:16.188Z,101145.81
2022-08-26T08:12:50.562Z,101142.88
2022-08-26T08:15:31.391Z,101140.88
2022-08-26T08:18:15.483Z,101139.94
2022-08-26T08:20:59.101Z,101138.78
2022-08-26T08:23:47.427Z,101134.97
2022-08-26T08:26:19.060Z,101138.03
2022-08-26T08:28:48.312Z,101142.56
2022-08-26T08:31:38.995Z,101148.06
2022-08-26T08:34:18.186Z,101160.25
2022-08-26T08:36:56.848Z,101149.50
2022-08-26T08:39:26.794Z,101152.00
2022-08-26T08:42:16.310Z,101154.63
2022-08-26T08:44:52.135Z,101168.34
2022-08-26T08:47:32.797Z,101159.31
2022-08-26T08:50:14.149Z,101155.84
2022-08-26T08:53:00.145Z,101163.63
2022-08-26T08:55:47.978Z,101168.78
2022-08-26T08:58:20.923Z,101162.94
2022-08-26T09:00:56.578Z,101173.84
2022-08-26T09:03:40.571Z,101164.44
2022-08-26T09:06:23.885Z,101162.38
2022-08-26T09:09:11.557Z,101165.31
2022-08-26T09:11:45.762Z,101172.81
2022-08-26T09:14:18.450Z,101170.97
2022-08-26T09:16:53.389Z,101170.63
2022-08-26T09:19:43.178Z,101167.09
2022-08-26T09:22:31.113Z,101167.50
2022-08-26T09:24:59.842Z,101165.13
2022-08-26T09:27:44.767Z,101171.88
2022-08-26T09:30:20.405Z,101172.03
2022-08-26T09:33:10.060Z,101171.53
2022-08-26T09:35:44.022Z,101170.53
2022-08-26T09:38:26.573Z,101169.75
2022-08-26T09:41:00.497Z,101173.66
2022-08-26T09:43:30.277Z,101180.19
2022-08-26T09:46:15.965Z,101175.47
2022-08-26T09:48:44.576Z,101177.69
2022-08-26T09:51:31.906Z,101180.88
2022-08-26T09:54:03.541Z,101175.69
2022-08-26T09:56:39.713Z,101174.50
2022-08-26T09:59:12.519Z,101180.53
2022-08-26T10:01:46.749Z,101176.34
2022-08-26T10:04:22.850Z,101184.41
2022-08-26T10:07:00.300Z,101180.44
2022-08-26T10:09:31.376Z,101177.47
2022-08-26T10:12:06.159Z,101170.94
2022-08-26T10:14:40.049Z,101168.91
2022-08-26T10:17:18.529Z,101172.25
2022-08-26T10:19:56.974Z,101169.97
2022-08-26T10:22:39.671Z,101164.16
2022-08-26T10:25:27.819Z,101166.53
2022-08-26T10:28:49.948Z,101168.53
2022-08-26T10:58:44.612Z,101156.31
2022-08-26T11:11:03.119Z,101157.78
2022-08-26T11:18:43.912Z,101154.38
2022-08-26T11:22:34.486Z,101149.16
2022-08-26T11:25:14.164Z,101157.16
2022-08-26T11:41:35.799Z,101154.00
2022-08-26T11:49:40.116Z,101148.56
2022-08-26T12:05:58.197Z,101133.50
2022-08-26T12:08:47.622Z,101130.53
2022-08-26T12:12:12.104Z,101134.84
2022-08-26T12:19:48.081Z,101134.97
2022-08-26T12:23:12.866Z,101137.81
2022-08-26T12:26:01.552Z,101138.13
2022-08-26T12:29:20.124Z,101140.00
2022-08-26T12:32:09.539Z,101139.47
2022-08-26T12:34:56.471Z,101142.03
2022-08-26T12:37:33.070Z,101145.19
2022-08-26T15:48:17.787Z,101101.19
2022-08-26T15:50:52.384Z,101094.53
2022-08-26T15:53:49.812Z,101095.63
2022-08-26T15:56:17.816Z,101104.34
2022-08-26T15:58:46.461Z,101105.56
2022-08-26T16:01:27.430Z,101092.09
2022-08-26T16:04:31.149Z,101096.31
2022-08-26T16:07:00.664Z,101093.16
2022-08-26T16:09:30.704Z,101096.94
2022-08-26T16:11:59.240Z,101104.84
2022-08-26T16:14:28.210Z,101105.72
2022-08-26T16:16:57.507Z,101095.81
2022-08-26T16:19:25.818Z,101094.38
2022-08-26T16:21:54.419Z,101101.25
2022-08-26T16:24:29.741Z,101098.28
2022-08-26T16:26:58.690Z,101109.69
2022-08-26T16:29:26.801Z,101104.66
2022-08-26T16:31:55.661Z,101102.31
2022-08-26T16:34:24.495Z,101103.78
2022-08-26T16:36:53.258Z,101107.91
2022-08-26T16:39:21.641Z,101105.06
2022-08-26T16:41:51.741Z,101099.75
2022-08-26T16:44:20.099Z,101100.03
2022-08-26T16:46:48.309Z,101104.66
2022-08-26T16:49:16.661Z,101105.50
2022-08-26T16:51:44.975Z,101104.34
2022-08-26T16:54:13.160Z,101113.63
2022-08-26T16:56:41.291Z,101125.06
2022-08-26T16:59:12.242Z,101118.44
2022-08-26T17:01:40.660Z,101122.94
2022-08-26T17:04:09.026Z,101115.84
2022-08-26T17:06:37.245Z,101123.00
2022-08-26T17:09:05.720Z,101125.91
2022-08-26T17:11:33.785Z,101132.72
2022-08-26T17:14:01.991Z,101140.44
2022-08-26T17:16:31.793Z,101144.88
2022-08-26T17:19:01.323Z,101139.97
2022-08-26T17:21:29.987Z,101141.97
2022-08-26T17:23:58.089Z,101149.81
2022-08-26T17:26:26.796Z,101149.59
2022-08-26T17:28:55.658Z,101155.31
2022-08-26T17:31:24.702Z,101158.56
2022-08-26T17:33:55.550Z,101163.72
2022-08-26T17:36:27.868Z,101160.59
2022-08-26T17:38:57.844Z,101166.66
2022-08-26T17:41:26.391Z,101163.75
2022-08-26T17:43:54.682Z,101161.81
2022-08-26T17:46:22.995Z,101154.13
2022-08-26T17:48:51.313Z,101159.19
2022-08-26T17:51:22.946Z,101163.50
2022-08-26T17:53:51.641Z,101159.53
2022-08-26T17:56:23.863Z,101163.94
2022-08-26T17:58:52.785Z,101169.28
2022-08-26T18:01:21.589Z,101164.38
2022-08-26T18:03:50.285Z,101165.19
2022-08-26T18:06:18.642Z,101155.66
2022-08-26T18:08:49.371Z,101160.13
2022-08-26T18:11:19.377Z,101154.88
2022-08-26T18:13:48.360Z,101159.31
2022-08-26T18:16:18.142Z,101170.53
2022-08-26T18:18:47.701Z,101157.00
2022-08-26T18:21:17.805Z,101161.94
2022-08-26T18:23:48.572Z,101159.59
2022-08-26T18:26:19.181Z,101162.16
2022-08-26T18:28:47.380Z,101168.00
2022-08-26T18:31:16.450Z,101167.53
2022-08-26T18:33:44.900Z,101161.41
2022-08-26T18:36:18.504Z,101164.78
2022-08-26T18:38:50.478Z,101166.09
2022-08-26T18:41:20.717Z,101173.00
2022-08-26T18:43:50.385Z,101175.13
2022-08-26T18:46:20.077Z,101174.78
2022-08-26T18:48:50.930Z,101171.22
2022-08-26T18:51:21.151Z,101168.41
2022-08-26T18:53:50.606Z,101174.19
2022-08-26T18:56:18.835Z,101174.69
2022-08-26T18:58:46.994Z,101181.13
2022-08-26T19:01:15.995Z,101186.13
2022-08-26T19:03:44.729Z,101188.03
2022-08-26T19:06:17.601Z,101194.47
2022-08-26T19:08:46.591Z,101186.63
2022-08-26T19:11:32.266Z,101190.66
2022-08-26T19:14:07.677Z,101189.81
2022-08-26T19:16:36.489Z,101190.81
2022-08-26T19:19:05.820Z,101182.84
2022-08-26T19:21:35.450Z,101189.25
2022-08-26T19:24:05.727Z,101198.56
2022-08-26T19:26:35.436Z,101192.47
2022-08-26T19:29:04.060Z,101196.00
2022-08-26T19:31:32.287Z,101196.28
2022-08-26T19:34:00.301Z,101198.50
2022-08-26T19:36:29.400Z,101199.78
2022-08-26T19:38:58.218Z,101195.91
2022-08-26T19:41:37.464Z,101206.91
2022-08-26T19:44:11.108Z,101205.06
2022-08-26T19:46:40.877Z,101203.31
2022-08-26T19:49:09.047Z,101213.25
2022-08-26T19:51:37.750Z,101212.16
2022-08-26T19:54:06.250Z,101207.66
2022-08-26T19:56:34.930Z,101204.22
2022-08-26T19:59:02.962Z,101201.69
2022-08-26T20:01:32.472Z,101203.34
2022-08-26T20:04:00.626Z,101198.69
2022-08-26T20:06:28.741Z,101210.25
2022-08-26T20:08:57.051Z,101201.69
2022-08-26T20:11:25.494Z,101204.03
2022-08-26T20:13:53.487Z,101202.41
2022-08-26T20:16:21.544Z,101207.47
2022-08-26T20:19:08.392Z,101217.69
2022-08-26T20:21:39.137Z,101212.63
2022-08-26T20:24:09.771Z,101218.88
2022-08-26T20:26:42.636Z,101220.63
2022-08-26T20:29:13.271Z,101223.47
2022-08-26T20:31:41.545Z,101228.97
2022-08-26T20:34:11.127Z,101229.88
2022-08-26T20:36:41.428Z,101225.63
2022-08-26T20:39:10.745Z,101222.66
2022-08-26T20:41:39.260Z,101220.69
2022-08-26T20:44:08.071Z,101228.25
2022-08-26T20:46:36.114Z,101230.28
2022-08-26T20:49:05.823Z,101232.34
2022-08-26T20:51:38.465Z,101232.63
2022-08-26T20:54:06.984Z,101243.38
2022-08-26T20:56:35.724Z,101237.09
2022-08-26T20:59:05.705Z,101241.31
2022-08-26T21:01:35.550Z,101237.13
2022-08-26T21:04:07.153Z,101246.13
2022-08-26T21:06:38.234Z,101243.00
2022-08-26T21:09:08.098Z,101246.78
2022-08-26T21:11:37.751Z,101243.78
2022-08-26T21:14:17.108Z,101243.06
2022-08-26T21:16:46.550Z,101247.00
2022-08-26T21:19:17.567Z,101241.94
2022-08-26T21:21:47.765Z,101249.72
2022-08-26T21:24:15.986Z,101242.09
2022-08-26T21:26:44.108Z,101255.50
2022-08-26T21:29:13.526Z,101246.00
2022-08-26T21:31:46.048Z,101250.19
2022-08-26T21:34:15.491Z,101249.91
2022-08-26T21:36:43.521Z,101269.78
2022-08-26T21:39:13.267Z,101260.56
2022-08-26T21:41:42.625Z,101270.09
2022-08-26T21:44:11.478Z,101261.88
2022-08-26T21:46:39.801Z,101266.91
2022-08-26T21:49:09.907Z,101273.53
2022-08-26T21:51:41.857Z,101278.47
2022-08-26T21:54:11.590Z,101274.44
2022-08-26T21:56:44.233Z,101275.28
2022-08-26T21:59:12.946Z,101272.41
2022-08-26T22:01:40.916Z,101281.34
2022-08-26T22:04:10.315Z,101278.31
2022-08-26T22:06:43.244Z,101281.28
2022-08-26T22:09:12.327Z,101293.44
2022-08-26T22:11:42.248Z,101288.19
2022-08-26T22:14:11.435Z,101291.38
2022-08-26T22:16:39.488Z,101297.13
2022-08-26T22:19:07.992Z,101291.38
2022-08-26T22:21:41.478Z,101291.06
2022-08-26T22:24:12.116Z,101288.06
2022-08-26T22:26:41.451Z,101291.66
2022-08-26T22:29:09.435Z,101299.28
2022-08-26T22:31:38.761Z,101297.69
2022-08-26T22:34:09.234Z,101314.72
2022-08-26T22:36:43.079Z,101318.44
2022-08-26T22:39:13.160Z,101317.22
2022-08-26T22:41:43.005Z,101334.31
2022-08-26T22:44:11.675Z,101336.16
2022-08-26T22:46:40.866Z,101340.50
2022-08-26T22:49:09.852Z,101339.38
2022-08-26T22:51:37.848Z,101346.16
2022-08-26T22:54:06.686Z,101344.94
2022-08-26T22:56:35.202Z,101346.59
2022-08-26T22:59:05.464Z,101341.94
2022-08-26T23:01:36.687Z,101340.41
2022-08-26T23:04:06.455Z,101336.41
2022-08-26T23:06:36.244Z,101342.91
2022-08-26T23:09:04.646Z,101345.50
2022-08-26T23:11:32.904Z,101357.31
2022-08-26T23:14:01.449Z,101357.75
2022-08-26T23:16:39.292Z,101353.03
2022-08-26T23:19:08.496Z,101356.31
2022-08-26T23:21:36.768Z,101356.91
2022-08-26T23:24:05.308Z,101366.03
2022-08-26T23:26:34.038Z,101364.16
2022-08-26T23:29:02.450Z,101360.66
2022-08-26T23:31:30.834Z,101360.16
2022-08-26T23:34:18.371Z,101364.88
2022-08-26T23:36:46.357Z,101367.44
2022-08-26T23:39:15.081Z,101370.97
2022-08-26T23:41:43.351Z,101358.56
2022-08-26T23:44:12.261Z,101369.28
2022-08-26T23:46:40.502Z,101370.84
2022-08-26T23:49:09.779Z,101359.97
2022-08-26T23:51:56.518Z,101369.03
2022-08-26T23:54:24.432Z,101363.41
2022-08-26T23:56:52.302Z,101359.53
2022-08-26T23:59:20.598Z,101347.63
